Terminal Aerodrome Forecast
Issued by NWS

Home | Current Version | Previous Version | Text Only | Print | Product List | Glossary On
Versions: 1 2 3 4 5 6 7 8 9 10 11 12
000
FTUS43 KFGF 121700
TAFDVL
TAF
KDVL 121720Z 1218/1318 25013G20KT P6SM SCT250
     FM130000 33015G23KT P6SM VCTS BKN080CB
     FM130400 32011KT P6SM SCT080
     FM131400 32018KT P6SM SKC
      AMD LTD TO CLD VIS AND WIND=

USA.gov is the U.S. government's official web portal to all federal, state and local government web resources and services.